createdAt,value
2023-08-08T00:00:14.597Z,98619.00
2023-08-08T00:02:44.335Z,98608.94
2023-08-08T00:05:12.675Z,98579.50
2023-08-08T00:07:41.003Z,98612.06
2023-08-08T00:10:10.351Z,98602.59
2023-08-08T00:12:38.568Z,98615.47
2023-08-08T00:15:08.268Z,98595.97
2023-08-08T00:17:36.686Z,98608.41
2023-08-08T00:20:08.404Z,98606.06
2023-08-08T00:22:36.589Z,98607.81
2023-08-08T00:25:05.237Z,98603.97
2023-08-08T00:27:33.775Z,98603.19
2023-08-08T00:30:02.951Z,98610.09
2023-08-08T00:32:31.397Z,98598.72
2023-08-08T00:34:59.730Z,98596.88
2023-08-08T00:37:29.303Z,98596.75
2023-08-08T00:39:57.660Z,98587.19
2023-08-08T00:42:25.979Z,98591.94
2023-08-08T00:44:54.368Z,98593.28
2023-08-08T00:47:22.602Z,98588.50
2023-08-08T00:49:50.821Z,98587.44
2023-08-08T00:52:19.020Z,98585.03
2023-08-08T00:54:48.748Z,98582.91
2023-08-08T00:57:17.175Z,98573.94
2023-08-08T00:59:45.625Z,98589.00
2023-08-08T01:02:14.257Z,98587.16
2023-08-08T01:04:43.264Z,98588.00
2023-08-08T01:07:18.717Z,98578.97
2023-08-08T01:09:55.431Z,98578.91
2023-08-08T01:12:25.110Z,98585.22
2023-08-08T01:14:53.583Z,98583.97
2023-08-08T01:17:23.659Z,98574.63
2023-08-08T01:19:52.548Z,98570.97
2023-08-08T01:22:27.617Z,98574.56
2023-08-08T01:24:58.161Z,98576.25
2023-08-08T01:27:26.505Z,98581.38
2023-08-08T01:29:55.465Z,98575.41
2023-08-08T01:32:23.710Z,98584.13
2023-08-08T01:34:56.197Z,98579.44
2023-08-08T01:37:31.377Z,98569.41
2023-08-08T01:40:02.889Z,98569.06
2023-08-08T01:42:31.865Z,98569.97
2023-08-08T01:45:00.856Z,98573.50
2023-08-08T01:47:29.120Z,98563.94
2023-08-08T01:49:57.532Z,98569.19
2023-08-08T01:52:26.150Z,98552.56
2023-08-08T01:54:54.334Z,98560.91
2023-08-08T01:57:23.898Z,98560.31
2023-08-08T01:59:52.250Z,98551.38
2023-08-08T02:02:20.446Z,98556.91
2023-08-08T02:04:48.711Z,98547.94
2023-08-08T02:07:18.406Z,98551.78
2023-08-08T02:09:47.305Z,98551.16
2023-08-08T02:12:15.425Z,98557.34
2023-08-08T02:14:44.928Z,98544.34
2023-08-08T02:17:14.194Z,98553.06
2023-08-08T02:19:42.328Z,98551.72
2023-08-08T02:22:11.675Z,98539.03
2023-08-08T02:24:40.110Z,98542.34
2023-08-08T02:27:08.741Z,98539.75
2023-08-08T02:29:36.841Z,98528.94
2023-08-08T02:32:07.466Z,98526.88
2023-08-08T02:34:35.651Z,98528.09
2023-08-08T02:37:03.815Z,98521.47
2023-08-08T02:39:32.797Z,98527.47
2023-08-08T02:42:01.236Z,98521.81
2023-08-08T02:44:30.339Z,98528.59
2023-08-08T02:46:58.724Z,98529.66
2023-08-08T02:49:28.245Z,98522.72
2023-08-08T02:51:56.383Z,98517.75
2023-08-08T02:54:24.807Z,98524.75
2023-08-08T02:56:55.820Z,98508.94
2023-08-08T02:59:24.068Z,98517.88
2023-08-08T03:01:52.422Z,98513.06
2023-08-08T03:04:20.757Z,98510.53
2023-08-08T03:06:50.387Z,98505.22
2023-08-08T03:09:18.735Z,98512.56
2023-08-08T03:11:46.864Z,98505.78
2023-08-08T03:14:15.295Z,98506.88
2023-08-08T03:16:43.826Z,98496.72
2023-08-08T03:19:12.720Z,98505.59
2023-08-08T03:21:40.880Z,98501.38
2023-08-08T03:24:10.574Z,98496.06
2023-08-08T03:26:38.751Z,98504.09
2023-08-08T03:29:10.978Z,98499.41
2023-08-08T03:31:39.585Z,98511.41
2023-08-08T03:34:07.780Z,98504.38
2023-08-08T03:36:36.344Z,98508.75
2023-08-08T03:39:05.159Z,98496.59
2023-08-08T03:41:34.647Z,98501.28
2023-08-08T03:44:04.120Z,98493.00
2023-08-08T03:46:33.007Z,98482.75
2023-08-08T03:49:01.428Z,98446.13
2023-08-08T03:51:29.579Z,98479.03
2023-08-08T03:53:57.998Z,98474.97
2023-08-08T03:56:26.348Z,98463.94
2023-08-08T03:58:55.817Z,98470.53
2023-08-08T04:01:24.376Z,98469.25
2023-08-08T04:03:52.601Z,98464.09
2023-08-08T04:06:20.746Z,98442.47
2023-08-08T04:08:49.104Z,98473.53
2023-08-08T04:11:17.495Z,98467.97
2023-08-08T04:13:45.769Z,98467.06
2023-08-08T04:16:17.459Z,98472.13
2023-08-08T04:18:45.630Z,98470.91
2023-08-08T04:21:13.771Z,98456.03
2023-08-08T04:23:42.081Z,98442.47
2023-08-08T04:26:10.173Z,98454.72
2023-08-08T04:28:38.898Z,98452.72
2023-08-08T04:31:07.258Z,98452.44
2023-08-08T04:33:36.915Z,98447.22
2023-08-08T04:36:05.294Z,98440.50
2023-08-08T04:38:33.502Z,98428.66
2023-08-08T04:41:02.687Z,98438.09
2023-08-08T04:43:30.987Z,98427.38
2023-08-08T04:45:59.554Z,98406.31
2023-08-08T04:48:28.062Z,98416.88
2023-08-08T04:50:57.688Z,98423.06
2023-08-08T04:53:25.803Z,98420.72
2023-08-08T04:55:55.663Z,98423.75
2023-08-08T04:58:23.853Z,98421.81
2023-08-08T05:00:52.928Z,98409.34
2023-08-08T05:03:21.305Z,98400.91
2023-08-08T05:05:49.682Z,98421.47
2023-08-08T05:08:19.490Z,98419.28
2023-08-08T05:10:47.613Z,98408.94
2023-08-08T05:13:15.880Z,98406.44
2023-08-08T05:15:44.075Z,98401.16
2023-08-08T05:18:12.264Z,98362.03
2023-08-08T05:20:41.133Z,98403.72
2023-08-08T05:23:09.488Z,98388.72
2023-08-08T05:25:39.079Z,98373.97
2023-08-08T05:28:08.009Z,98385.00
2023-08-08T05:30:36.455Z,98362.47
2023-08-08T05:33:04.756Z,98372.03
2023-08-08T05:35:33.107Z,98369.69
2023-08-08T05:38:01.598Z,98367.13
2023-08-08T05:40:30.007Z,98352.91
2023-08-08T05:42:59.538Z,98367.97
2023-08-08T05:45:27.819Z,98367.97
2023-08-08T05:47:56.735Z,98352.72
2023-08-08T05:50:25.117Z,98349.16
2023-08-08T05:52:53.696Z,98354.81
2023-08-08T05:55:22.033Z,98357.53
2023-08-08T05:57:50.182Z,98346.91
2023-08-08T06:00:20.795Z,98352.44
2023-08-08T06:02:48.924Z,98344.19
2023-08-08T06:05:19.038Z,98343.50
2023-08-08T06:07:47.394Z,98340.56
2023-08-08T06:10:16.789Z,98337.34
2023-08-08T06:12:45.215Z,98308.44
2023-08-08T06:15:15.872Z,98327.59
2023-08-08T06:17:45.524Z,98324.00
2023-08-08T06:20:13.951Z,98312.31
2023-08-08T06:22:43.001Z,98316.31
2023-08-08T06:25:13.357Z,98293.38
2023-08-08T06:27:41.604Z,98311.19
2023-08-08T06:30:10.706Z,98294.22
2023-08-08T06:32:39.280Z,98288.28
2023-08-08T06:35:10.740Z,98277.03
2023-08-08T06:37:40.374Z,98282.75
2023-08-08T06:40:11.162Z,98276.41
2023-08-08T06:42:39.391Z,98256.63
2023-08-08T06:45:08.689Z,98252.81
2023-08-08T06:47:37.035Z,98245.78
2023-08-08T06:50:06.430Z,98234.75
2023-08-08T06:52:36.033Z,98234.31
2023-08-08T06:55:04.747Z,98233.25
2023-08-08T06:57:35.930Z,98228.13
2023-08-08T07:00:07.276Z,98216.91
2023-08-08T07:02:35.612Z,98212.44
2023-08-08T07:05:05.108Z,98218.38
2023-08-08T07:07:34.503Z,98209.88
2023-08-08T07:10:08.256Z,98202.53
2023-08-08T07:12:36.944Z,98182.97
2023-08-08T07:15:05.824Z,98196.94
2023-08-08T07:17:33.931Z,98197.38
2023-08-08T07:20:02.306Z,98197.78
2023-08-08T07:22:30.559Z,98191.41
2023-08-08T07:24:58.912Z,98146.59
2023-08-08T07:27:29.258Z,98177.13
2023-08-08T07:29:57.687Z,98120.03
2023-08-08T07:32:25.814Z,98141.47
2023-08-08T07:34:54.046Z,98156.94
2023-08-08T07:37:22.324Z,98163.38
2023-08-08T07:39:53.552Z,98144.72
2023-08-08T07:42:21.836Z,98134.94
2023-08-08T07:44:51.689Z,98152.75
2023-08-08T07:47:20.276Z,98153.16
2023-08-08T07:49:51.662Z,98141.88
2023-08-08T07:52:19.817Z,98159.06
2023-08-08T07:54:48.097Z,98116.38
2023-08-08T07:57:16.356Z,98152.25
2023-08-08T07:59:44.955Z,98148.28
2023-08-08T08:02:14.593Z,98143.47
2023-08-08T08:04:42.853Z,98135.63
2023-08-08T08:07:15.713Z,98143.34
2023-08-08T08:09:44.655Z,98128.75
2023-08-08T08:12:13.065Z,98157.38
2023-08-08T08:14:41.294Z,98137.78
2023-08-08T08:17:10.252Z,98158.94
2023-08-08T08:19:40.063Z,98141.91
2023-08-08T08:22:08.243Z,98147.19
2023-08-08T08:24:36.913Z,98157.69
2023-08-08T08:27:05.725Z,98163.06
2023-08-08T08:29:34.248Z,98163.84
2023-08-08T08:32:03.456Z,98182.06
2023-08-08T08:34:32.086Z,98177.81
2023-08-08T08:37:04.090Z,98171.19
2023-08-08T08:39:36.457Z,98178.69
2023-08-08T08:42:09.289Z,98174.44
2023-08-08T08:44:40.583Z,98171.47
2023-08-08T08:47:12.657Z,98194.28
2023-08-08T08:49:41.953Z,98157.84
2023-08-08T08:52:11.896Z,98199.91
2023-08-08T08:54:40.818Z,98203.09
2023-08-08T08:57:10.780Z,98209.28
2023-08-08T08:59:39.003Z,98202.03
2023-08-08T09:02:08.128Z,98204.63
2023-08-08T09:04:37.190Z,98212.25
2023-08-08T09:07:08.689Z,98210.78
2023-08-08T09:09:38.871Z,98207.28
2023-08-08T09:12:10.843Z,98230.13
2023-08-08T09:14:42.684Z,98215.13
2023-08-08T09:17:14.748Z,98230.84
2023-08-08T09:19:45.508Z,98219.03
2023-08-08T09:22:15.572Z,98207.16
2023-08-08T09:24:47.644Z,98240.81
2023-08-08T09:27:16.380Z,98234.13
2023-08-08T09:29:44.929Z,98248.53
2023-08-08T09:32:16.865Z,98238.66
2023-08-08T09:34:45.487Z,98232.28
2023-08-08T09:37:14.660Z,98256.03
2023-08-08T09:39:45.049Z,98262.53
2023-08-08T09:42:13.414Z,98256.00
2023-08-08T09:44:41.605Z,98253.16
2023-08-08T09:47:15.142Z,98286.03
2023-08-08T09:49:44.218Z,98265.19
2023-08-08T09:52:13.260Z,98290.22
2023-08-08T09:54:43.005Z,98262.25
2023-08-08T09:57:15.734Z,98291.94
2023-08-08T09:59:46.308Z,98280.47
2023-08-08T10:02:17.314Z,98305.97
2023-08-08T10:04:47.736Z,98280.69
2023-08-08T10:07:16.414Z,98331.59
2023-08-08T10:09:44.990Z,98324.13
2023-08-08T10:12:18.344Z,98316.31
2023-08-08T10:14:49.896Z,98314.81
2023-08-08T10:17:22.430Z,98302.78
2023-08-08T10:19:55.782Z,98328.03
2023-08-08T10:22:26.551Z,98340.81
2023-08-08T10:24:56.309Z,98349.00
2023-08-08T10:27:34.993Z,98345.22
2023-08-08T10:30:08.319Z,98331.59
2023-08-08T10:32:44.142Z,98343.56
2023-08-08T10:35:13.934Z,98350.16
2023-08-08T10:37:42.846Z,98340.59
2023-08-08T10:40:12.753Z,98357.25
2023-08-08T10:42:46.515Z,98366.94
2023-08-08T10:45:16.873Z,98383.56
2023-08-08T10:47:47.320Z,98381.25
2023-08-08T10:50:16.794Z,98363.09
2023-08-08T10:52:56.737Z,98326.34
2023-08-08T10:55:26.805Z,98385.06
2023-08-08T10:58:01.734Z,98393.22
2023-08-08T11:00:32.182Z,98393.22
2023-08-08T11:03:01.647Z,98393.13
2023-08-08T11:05:32.547Z,98360.34
2023-08-08T11:08:01.907Z,98392.19
2023-08-08T11:10:37.026Z,98406.38
2023-08-08T11:13:08.940Z,98402.91
2023-08-08T11:15:39.908Z,98421.03
2023-08-08T11:18:09.565Z,98413.13
2023-08-08T11:20:39.992Z,98416.13
2023-08-08T11:23:12.202Z,98412.53
2023-08-08T11:25:44.458Z,98431.84
2023-08-08T11:28:14.848Z,98427.59
2023-08-08T11:30:45.013Z,98434.28
2023-08-08T11:33:18.949Z,98432.81
2023-08-08T11:35:50.144Z,98424.03
2023-08-08T11:38:19.948Z,98446.28
2023-08-08T11:40:49.298Z,98437.16
2023-08-08T11:43:19.048Z,98425.00
2023-08-08T11:45:47.756Z,98456.44
2023-08-08T11:48:16.009Z,98443.56
2023-08-08T11:50:45.822Z,98452.81
2023-08-08T11:53:14.430Z,98471.09
2023-08-08T11:55:44.068Z,98461.06
2023-08-08T11:58:16.965Z,98468.06
2023-08-08T12:00:50.949Z,98484.34
2023-08-08T12:03:20.200Z,98463.69
2023-08-08T12:05:49.048Z,98482.56
2023-08-08T12:08:23.196Z,98477.16
2023-08-08T12:10:54.553Z,98482.84
2023-08-08T12:13:23.790Z,98500.06
2023-08-08T12:15:56.432Z,98500.06
2023-08-08T12:18:24.891Z,98510.78
2023-08-08T12:20:53.038Z,98528.59
2023-08-08T12:23:21.618Z,98509.63
2023-08-08T12:25:50.061Z,98517.88
2023-08-08T12:28:18.229Z,98549.91
2023-08-08T12:30:47.457Z,98535.13
2023-08-08T12:33:17.314Z,98546.22
2023-08-08T12:35:46.880Z,98559.00
2023-08-08T12:38:15.758Z,98552.94
2023-08-08T12:40:44.752Z,98553.13
2023-08-08T12:43:18.664Z,98569.03
2023-08-08T12:45:47.702Z,98576.25
2023-08-08T12:48:17.885Z,98568.31
2023-08-08T12:50:46.137Z,98575.78
2023-08-08T12:53:14.871Z,98582.91
2023-08-08T12:55:42.967Z,98583.19
2023-08-08T12:58:11.224Z,98594.44
2023-08-08T13:00:40.364Z,98590.66
2023-08-08T13:03:08.941Z,98590.84
2023-08-08T13:05:41.218Z,98606.41
2023-08-08T13:08:10.057Z,98615.88
2023-08-08T13:10:39.065Z,98610.00
2023-08-08T13:13:07.252Z,98596.13
2023-08-08T13:15:35.438Z,98612.25
2023-08-08T13:18:03.694Z,98608.25
2023-08-08T13:20:32.069Z,98610.41
2023-08-08T13:23:05.275Z,98620.63
2023-08-08T13:25:35.630Z,98617.81
2023-08-08T13:28:04.344Z,98616.94
2023-08-08T13:30:33.984Z,98615.91
2023-08-08T13:33:03.377Z,98618.94
2023-08-08T13:35:33.752Z,98630.50
2023-08-08T13:38:03.978Z,98630.69
2023-08-08T13:40:32.107Z,98623.09
2023-08-08T13:43:00.504Z,98622.50
2023-08-08T13:45:28.996Z,98628.38
2023-08-08T13:47:57.350Z,98633.69
2023-08-08T13:50:25.585Z,98633.91
2023-08-08T13:52:54.522Z,98637.13
2023-08-08T13:55:24.274Z,98629.53
2023-08-08T13:57:52.422Z,98647.00
2023-08-08T14:00:20.862Z,98647.38
2023-08-08T14:02:49.194Z,98648.66
2023-08-08T14:05:17.438Z,98639.78
2023-08-08T14:07:45.711Z,98630.31
2023-08-08T14:10:14.022Z,98640.88
2023-08-08T14:12:44.016Z,98644.53
2023-08-08T14:15:12.302Z,98639.78
2023-08-08T14:17:40.778Z,98656.97
2023-08-08T14:20:11.013Z,98650.19
2023-08-08T14:22:39.379Z,98666.72
2023-08-08T14:25:08.284Z,98655.44
2023-08-08T14:27:36.508Z,98654.00
2023-08-08T14:30:06.975Z,98668.22
2023-08-08T14:32:35.406Z,98673.25
2023-08-08T14:35:07.545Z,98657.25
2023-08-08T14:37:35.765Z,98654.56
2023-08-08T14:40:04.643Z,98679.25
2023-08-08T14:42:36.214Z,98676.19
2023-08-08T14:45:06.748Z,98672.38
2023-08-08T14:47:35.305Z,98670.84
2023-08-08T14:50:03.758Z,98682.47
2023-08-08T14:52:32.381Z,98663.38
2023-08-08T14:55:00.621Z,98660.44
2023-08-08T14:57:28.797Z,98676.38
2023-08-08T14:59:57.134Z,98675.03
2023-08-08T15:02:26.823Z,98692.06
2023-08-08T15:04:55.443Z,98691.38
2023-08-08T15:07:23.850Z,98690.03
2023-08-08T15:09:52.544Z,98690.41
2023-08-08T15:12:21.139Z,98689.19
2023-08-08T15:14:49.984Z,98702.75
2023-08-08T15:17:18.566Z,98707.88
2023-08-08T15:19:48.058Z,98687.09
2023-08-08T15:22:16.624Z,98704.28
2023-08-08T15:24:44.866Z,98705.97
2023-08-08T15:27:13.137Z,98703.06
2023-08-08T15:29:41.760Z,98701.25
2023-08-08T15:32:10.044Z,98711.47
2023-08-08T15:34:38.510Z,98707.22
2023-08-08T15:37:08.537Z,98702.38
2023-08-08T15:39:36.972Z,98706.19
2023-08-08T15:42:05.724Z,98708.63
2023-08-08T15:44:34.141Z,98712.44
2023-08-08T15:47:02.823Z,98711.28
2023-08-08T15:49:31.843Z,98718.03
2023-08-08T15:52:00.533Z,98723.47
2023-08-08T15:54:30.329Z,98723.78
2023-08-08T15:56:59.022Z,98715.44
2023-08-08T15:59:27.749Z,98722.09
2023-08-08T16:01:56.094Z,98737.06
2023-08-08T16:04:24.221Z,98723.22
2023-08-08T16:06:52.697Z,98729.56
2023-08-08T16:09:20.826Z,98725.88
2023-08-08T16:11:51.743Z,98729.50
2023-08-08T16:14:21.182Z,98728.19
2023-08-08T16:16:49.310Z,98721.47
2023-08-08T16:19:18.111Z,98723.69
2023-08-08T16:21:46.392Z,98720.34
2023-08-08T16:24:14.499Z,98738.75
2023-08-08T16:26:42.568Z,98735.63
2023-08-08T16:29:12.524Z,98732.53
2023-08-08T16:31:41.044Z,98731.59
2023-08-08T16:34:09.344Z,98746.88
2023-08-08T16:36:38.694Z,98733.28
2023-08-08T16:39:18.087Z,98745.56
2023-08-08T16:41:47.403Z,98739.16
2023-08-08T16:44:17.012Z,98738.75
2023-08-08T16:46:45.277Z,98743.72
2023-08-08T16:49:13.492Z,98749.38
2023-08-08T16:51:41.876Z,98737.06
2023-08-08T16:54:10.344Z,98752.03
2023-08-08T16:56:39.098Z,98754.69
2023-08-08T16:59:08.813Z,98760.28
2023-08-08T17:01:42.610Z,98766.91
2023-08-08T17:04:11.843Z,98767.03
2023-08-08T17:06:40.828Z,98767.59
2023-08-08T17:09:09.390Z,98787.31
2023-08-08T17:11:38.569Z,98758.38
2023-08-08T17:14:06.968Z,98785.78
2023-08-08T17:16:35.787Z,98771.06
2023-08-08T17:19:05.991Z,98769.69
2023-08-08T17:21:34.343Z,98782.38
2023-08-08T17:24:03.419Z,98795.56
2023-08-08T17:26:32.082Z,98799.88
2023-08-08T17:29:02.833Z,98785.78
2023-08-08T17:31:31.393Z,98797.75
2023-08-08T17:34:00.659Z,98795.25
2023-08-08T17:36:33.261Z,98804.13
2023-08-08T17:39:04.259Z,98807.03
2023-08-08T17:41:32.901Z,98811.59
2023-08-08T17:44:01.073Z,98821.78
2023-08-08T17:46:29.312Z,98815.75
2023-08-08T17:48:57.668Z,98842.28
2023-08-08T17:51:26.108Z,98819.06
2023-08-08T17:53:56.020Z,98788.56
2023-08-08T17:56:24.301Z,98817.50
2023-08-08T17:58:52.405Z,98819.81
2023-08-08T18:01:20.573Z,98828.94
2023-08-08T18:03:49.185Z,98819.53
2023-08-08T18:06:17.355Z,98837.41
2023-08-08T18:08:45.893Z,98831.19
2023-08-08T18:11:16.049Z,98842.38
2023-08-08T18:13:44.525Z,98857.38
2023-08-08T18:16:12.877Z,98841.72
2023-08-08T18:18:41.134Z,98861.50
2023-08-08T18:21:09.268Z,98847.31
2023-08-08T18:23:37.946Z,98863.75
2023-08-08T18:26:07.088Z,98867.84
2023-08-08T18:28:36.927Z,98871.63
2023-08-08T18:31:05.069Z,98871.63
2023-08-08T18:33:36.752Z,98867.16
2023-08-08T18:36:05.789Z,98888.22
2023-08-08T18:38:34.639Z,98886.53
2023-08-08T18:41:03.358Z,98870.56
2023-08-08T18:43:31.785Z,98887.50
2023-08-08T18:46:01.672Z,98914.97
2023-08-08T18:48:29.997Z,98896.44
2023-08-08T18:50:58.438Z,98898.50
2023-08-08T18:53:27.232Z,98897.47
2023-08-08T18:55:55.749Z,98899.53
2023-08-08T18:58:23.873Z,98917.31
2023-08-08T19:00:52.705Z,98921.16
2023-08-08T19:03:22.777Z,98918.88
2023-08-08T19:05:50.999Z,98924.00
2023-08-08T19:08:19.452Z,98924.00
2023-08-08T19:10:48.295Z,98923.63
2023-08-08T19:13:17.805Z,98929.63
2023-08-08T19:15:46.246Z,98926.88
2023-08-08T19:18:15.222Z,98948.44
2023-08-08T19:20:46.300Z,98934.09
2023-08-08T19:23:15.584Z,98942.97
2023-08-08T19:25:43.951Z,98957.88
2023-08-08T19:28:12.171Z,98946.75
2023-08-08T19:30:40.747Z,98961.09
2023-08-08T19:33:10.168Z,98961.13
2023-08-08T19:35:38.428Z,98958.72
2023-08-08T19:38:07.942Z,98970.72
2023-08-08T19:40:39.427Z,98967.44
2023-08-08T19:43:07.589Z,98962.97
2023-08-08T19:45:35.697Z,98972.25
2023-08-08T19:48:11.040Z,98966.25
2023-08-08T19:50:41.939Z,98963.88
2023-08-08T19:53:14.377Z,98972.59
2023-08-08T19:55:43.733Z,98984.66
2023-08-08T19:58:12.445Z,98985.75
2023-08-08T20:00:40.787Z,98987.97
2023-08-08T20:03:09.112Z,98977.56
2023-08-08T20:05:37.488Z,98973.13
2023-08-08T20:08:05.937Z,98990.41
2023-08-08T20:10:36.593Z,98993.56
2023-08-08T20:13:05.403Z,98980.97
2023-08-08T20:15:33.940Z,98993.31
2023-08-08T20:18:02.376Z,98992.63
2023-08-08T20:20:30.632Z,98997.34
2023-08-08T20:22:59.164Z,98993.47
2023-08-08T20:25:27.413Z,99002.91
2023-08-08T20:27:57.215Z,98978.72
2023-08-08T20:30:25.875Z,98991.78
2023-08-08T20:32:54.492Z,99007.84
2023-08-08T20:35:23.501Z,99005.66
2023-08-08T20:37:51.660Z,99022.63
2023-08-08T20:40:19.965Z,99003.09
2023-08-08T20:42:48.764Z,99019.84
2023-08-08T20:45:19.650Z,99015.66
2023-08-08T20:47:47.761Z,99011.38
2023-08-08T20:50:17.002Z,99011.66
2023-08-08T20:52:45.592Z,99018.16
2023-08-08T20:55:15.088Z,99008.38
2023-08-08T20:57:43.368Z,99020.13
2023-08-08T21:00:12.942Z,99019.84
2023-08-08T21:02:43.491Z,99024.31
2023-08-08T21:05:12.204Z,99026.91
2023-08-08T21:07:40.405Z,99030.81
2023-08-08T21:10:09.690Z,99037.53
2023-08-08T21:12:38.719Z,99025.00
2023-08-08T21:15:08.237Z,99038.56
2023-08-08T21:17:36.641Z,99034.31
2023-08-08T21:20:07.652Z,99053.47
2023-08-08T21:22:38.804Z,99055.47
2023-08-08T21:25:08.543Z,99041.84
2023-08-08T21:27:36.908Z,99068.66
2023-08-08T21:30:08.305Z,99060.13
2023-08-08T21:32:37.270Z,99062.84
2023-08-08T21:35:08.062Z,99079.66
2023-08-08T21:37:36.350Z,99054.50
2023-08-08T21:40:04.916Z,99060.00
2023-08-08T21:42:33.395Z,99062.47
2023-08-08T21:45:01.736Z,99060.03
2023-08-08T21:47:32.356Z,99078.75
2023-08-08T21:50:03.537Z,99038.38
2023-08-08T21:52:36.957Z,99073.22
2023-08-08T21:55:06.079Z,99066.16
2023-08-08T21:57:34.541Z,99069.56
2023-08-08T22:00:06.304Z,99067.84
2023-08-08T22:02:34.551Z,99082.34
2023-08-08T22:05:06.162Z,99072.66
2023-08-08T22:07:36.431Z,99077.19
2023-08-08T22:10:04.942Z,99077.00
2023-08-08T22:12:36.099Z,99065.91
2023-08-08T22:15:04.866Z,99065.66
2023-08-08T22:17:35.995Z,99072.38
2023-08-08T22:20:04.471Z,99087.78
2023-08-08T22:22:36.689Z,99091.25
2023-08-08T22:25:07.165Z,99060.59
2023-08-08T22:27:36.965Z,99086.06
2023-08-08T22:30:06.337Z,99096.28
2023-08-08T22:32:34.623Z,99079.88
2023-08-08T22:35:07.596Z,99055.47
2023-08-08T22:37:36.058Z,99060.88
2023-08-08T22:40:06.369Z,99078.44
2023-08-08T22:42:34.636Z,99082.78
2023-08-08T22:45:03.253Z,99093.13
2023-08-08T22:47:31.797Z,99088.38
2023-08-08T22:50:00.622Z,99040.31
2023-08-08T22:52:29.305Z,99073.53
2023-08-08T22:55:00.901Z,99096.44
2023-08-08T22:57:30.668Z,99086.34
2023-08-08T22:59:58.841Z,99086.63
2023-08-08T23:02:27.842Z,99074.31
2023-08-08T23:04:56.187Z,99103.06
2023-08-08T23:07:24.889Z,99092.59
2023-08-08T23:09:53.033Z,99085.63
2023-08-08T23:12:21.908Z,99104.03
2023-08-08T23:14:51.477Z,99106.59
2023-08-08T23:17:20.033Z,99114.25
2023-08-08T23:19:48.423Z,99109.72
2023-08-08T23:22:16.570Z,99120.94
2023-08-08T23:24:46.312Z,99122.84
2023-08-08T23:27:15.815Z,99102.38
2023-08-08T23:29:44.132Z,99100.97
2023-08-08T23:32:23.182Z,99105.41
2023-08-08T23:34:54.019Z,99106.09
2023-08-08T23:37:22.221Z,99122.81
2023-08-08T23:39:50.695Z,99130.38
2023-08-08T23:42:21.314Z,99113.91
2023-08-08T23:44:49.577Z,99118.69
2023-08-08T23:47:19.389Z,99126.78
2023-08-08T23:49:50.498Z,99132.56
2023-08-08T23:52:18.683Z,99120.22
2023-08-08T23:54:48.685Z,99097.13
2023-08-08T23:57:19.088Z,99103.63
2023-08-08T23:59:47.258Z,99122.56
